createdAt,value
2023-04-18T00:01:54.972Z,9.38
2023-04-18T00:04:22.904Z,9.23
2023-04-18T00:06:51.854Z,9.31
2023-04-18T00:09:19.770Z,9.25
2023-04-18T00:11:47.543Z,9.24
2023-04-18T00:14:15.569Z,9.32
2023-04-18T00:16:43.606Z,9.33
2023-04-18T00:19:14.217Z,9.31
2023-04-18T00:21:44.837Z,9.29
2023-04-18T00:24:12.868Z,9.27
2023-04-18T00:26:40.912Z,9.30
2023-04-18T00:29:08.707Z,9.33
2023-04-18T00:31:36.454Z,9.17
2023-04-18T00:34:04.274Z,9.28
2023-04-18T00:36:33.460Z,9.22
2023-04-18T00:39:01.184Z,9.16
2023-04-18T00:41:29.016Z,9.23
2023-04-18T00:43:56.936Z,9.28
2023-04-18T00:46:24.864Z,9.25
2023-04-18T00:48:52.796Z,9.29
2023-04-18T00:51:21.341Z,9.29
2023-04-18T00:53:51.731Z,9.27
2023-04-18T00:56:19.542Z,9.23
2023-04-18T00:58:47.370Z,9.34
2023-04-18T01:01:15.156Z,9.39
2023-04-18T01:03:43.289Z,9.24
2023-04-18T01:06:11.667Z,9.29
2023-04-18T01:08:39.580Z,9.21
2023-04-18T01:11:08.780Z,9.24
2023-04-18T01:13:36.577Z,9.24
2023-04-18T01:16:04.661Z,9.31
2023-04-18T01:18:32.532Z,9.27
2023-04-18T01:21:00.869Z,9.25
2023-04-18T01:23:28.742Z,9.30
2023-04-18T01:25:57.926Z,9.22
2023-04-18T01:28:27.790Z,9.26
2023-04-18T01:30:55.851Z,9.21
2023-04-18T01:33:23.586Z,9.22
2023-04-18T01:35:51.542Z,9.31
2023-04-18T01:38:19.313Z,9.33
2023-04-18T01:40:47.035Z,9.33
2023-04-18T01:43:16.321Z,9.21
2023-04-18T01:45:43.962Z,9.23
2023-04-18T01:48:11.741Z,9.24
2023-04-18T01:50:39.510Z,9.25
2023-04-18T01:53:07.650Z,9.22
2023-04-18T01:55:35.559Z,9.16
2023-04-18T01:58:03.302Z,9.19
2023-04-18T02:00:32.462Z,9.22
2023-04-18T02:03:00.652Z,9.14
2023-04-18T02:05:28.543Z,9.08
2023-04-18T02:07:56.216Z,9.13
2023-04-18T02:10:24.537Z,9.25
2023-04-18T02:12:52.316Z,9.24
2023-04-18T02:15:20.551Z,9.25
2023-04-18T02:17:50.546Z,9.32
2023-04-18T02:20:18.319Z,9.15
2023-04-18T02:22:47.785Z,9.15
2023-04-18T02:25:15.497Z,9.32
2023-04-18T02:27:43.225Z,9.24
2023-04-18T02:30:11.433Z,9.32
2023-04-18T02:32:39.179Z,9.34
2023-04-18T02:35:09.176Z,9.35
2023-04-18T02:37:36.935Z,9.33
2023-04-18T02:40:05.645Z,9.23
2023-04-18T02:42:33.370Z,9.26
2023-04-18T02:45:01.140Z,9.35
2023-04-18T02:47:30.364Z,9.38
2023-04-18T02:49:59.525Z,9.34
2023-04-18T02:52:28.752Z,9.29
2023-04-18T02:54:56.624Z,9.30
2023-04-18T02:57:24.329Z,9.29
2023-04-18T02:59:52.124Z,9.04
2023-04-18T03:02:20.943Z,9.22
2023-04-18T03:04:48.915Z,9.31
2023-04-18T03:07:16.774Z,9.28
2023-04-18T03:09:46.231Z,9.30
2023-04-18T03:12:14.020Z,9.25
2023-04-18T03:14:41.790Z,9.41
2023-04-18T03:17:09.607Z,9.16
2023-04-18T03:19:37.494Z,9.30
2023-04-18T03:22:06.148Z,9.27
2023-04-18T03:24:33.869Z,9.30
2023-04-18T03:27:03.071Z,9.30
2023-04-18T03:29:31.090Z,9.31
2023-04-18T03:31:58.928Z,9.37
2023-04-18T03:34:26.769Z,9.30
2023-04-18T03:36:55.227Z,9.18
2023-04-18T03:39:23.259Z,9.24
2023-04-18T03:41:52.166Z,9.14
2023-04-18T03:44:21.264Z,9.25
2023-04-18T03:46:49.007Z,9.30
2023-04-18T03:49:16.680Z,9.17
2023-04-18T03:51:47.576Z,9.21
2023-04-18T03:54:15.584Z,9.14
2023-04-18T03:56:43.606Z,9.22
2023-04-18T03:59:12.040Z,9.34
2023-04-18T04:01:41.256Z,9.37
2023-04-18T04:04:12.197Z,9.22
2023-04-18T04:06:40.334Z,9.22
2023-04-18T04:09:08.358Z,9.39
2023-04-18T04:11:36.557Z,9.39
2023-04-18T04:14:04.492Z,9.38
2023-04-18T04:16:32.537Z,9.35
2023-04-18T04:19:01.748Z,9.42
2023-04-18T04:21:31.355Z,9.20
2023-04-18T04:23:59.354Z,9.31
2023-04-18T04:26:27.755Z,9.40
2023-04-18T04:28:55.566Z,9.29
2023-04-18T04:31:23.456Z,9.30
2023-04-18T04:33:51.279Z,9.30
2023-04-18T04:36:22.921Z,9.27
2023-04-18T04:38:50.714Z,9.29
2023-04-18T04:41:18.520Z,9.40
2023-04-18T04:43:47.028Z,9.44
2023-04-18T04:46:15.514Z,9.43
2023-04-18T04:48:43.227Z,9.44
2023-04-18T04:51:11.056Z,9.30
2023-04-18T04:53:40.195Z,9.30
2023-04-18T04:56:09.296Z,9.35
2023-04-18T04:58:37.024Z,9.23
2023-04-18T05:01:07.918Z,9.29
2023-04-18T05:03:36.519Z,9.17
2023-04-18T05:06:04.855Z,9.16
2023-04-18T05:08:32.820Z,9.12
2023-04-18T05:11:02.839Z,9.20
2023-04-18T05:13:33.737Z,9.19
2023-04-18T05:16:02.922Z,9.15
2023-04-18T05:18:33.008Z,9.08
2023-04-18T05:21:02.256Z,9.27
2023-04-18T05:23:30.471Z,9.23
2023-04-18T05:25:58.294Z,9.28
2023-04-18T05:28:27.528Z,9.33
2023-04-18T05:31:01.089Z,9.23
2023-04-18T05:33:29.104Z,9.27
2023-04-18T05:35:57.727Z,9.18
2023-04-18T05:38:25.759Z,9.15
2023-04-18T05:40:55.562Z,9.11
2023-04-18T05:43:23.713Z,9.29
2023-04-18T05:45:54.283Z,9.39
2023-04-18T05:48:25.310Z,9.38
2023-04-18T05:50:53.091Z,9.44
2023-04-18T05:53:20.908Z,9.36
2023-04-18T05:55:48.959Z,9.37
2023-04-18T05:58:16.818Z,9.56
2023-04-18T06:00:45.074Z,9.51
2023-04-18T06:03:14.268Z,9.51
2023-04-18T06:05:42.343Z,9.59
2023-04-18T06:08:10.365Z,9.54
2023-04-18T06:10:39.190Z,9.58
2023-04-18T06:13:07.125Z,9.61
2023-04-18T06:15:36.316Z,9.61
2023-04-18T06:18:04.157Z,9.61
2023-04-18T06:20:33.313Z,9.50
2023-04-18T06:23:01.060Z,9.91
2023-04-18T06:25:28.910Z,9.98
2023-04-18T06:27:56.678Z,10.07
2023-04-18T06:30:24.807Z,9.83
2023-04-18T06:32:52.649Z,9.99
2023-04-18T06:35:20.539Z,9.79
2023-04-18T06:37:50.998Z,9.86
2023-04-18T06:40:18.942Z,9.97
2023-04-18T06:42:46.764Z,9.98
2023-04-18T06:45:14.537Z,9.76
2023-04-18T06:47:42.535Z,9.85
2023-04-18T06:50:10.908Z,9.94
2023-04-18T06:52:40.770Z,9.96
2023-04-18T06:55:10.424Z,10.09
2023-04-18T06:57:38.177Z,10.26
2023-04-18T07:00:07.072Z,10.31
2023-04-18T07:02:36.671Z,10.37
2023-04-18T07:05:05.077Z,10.43
2023-04-18T07:07:33.992Z,10.34
2023-04-18T07:10:02.130Z,10.11
2023-04-18T07:12:31.432Z,10.41
2023-04-18T07:14:59.305Z,10.63
2023-04-18T07:17:29.550Z,10.56
2023-04-18T07:19:57.695Z,10.64
2023-04-18T07:22:25.462Z,10.53
2023-04-18T07:24:53.368Z,10.54
2023-04-18T07:27:21.099Z,11.04
2023-04-18T07:29:50.234Z,10.84
2023-04-18T07:32:18.177Z,11.17
2023-04-18T07:34:46.184Z,10.61
2023-04-18T07:37:15.191Z,10.77
2023-04-18T07:39:43.204Z,10.92
2023-04-18T07:42:11.355Z,10.83
2023-04-18T07:44:39.270Z,11.30
2023-04-18T07:47:11.153Z,11.64
2023-04-18T07:49:39.446Z,11.48
2023-04-18T07:52:07.322Z,11.41
2023-04-18T07:54:35.047Z,11.78
2023-04-18T07:57:02.817Z,12.12
2023-04-18T07:59:32.179Z,12.33
2023-04-18T08:02:00.052Z,11.86
2023-04-18T08:04:30.448Z,12.18
2023-04-18T08:06:58.491Z,12.40
2023-04-18T08:09:26.242Z,12.65
2023-04-18T08:11:55.206Z,13.06
2023-04-18T08:14:23.023Z,12.82
2023-04-18T08:16:50.823Z,12.57
2023-04-18T08:19:18.616Z,12.13
2023-04-18T08:21:47.773Z,12.25
2023-04-18T08:24:15.578Z,12.02
2023-04-18T08:26:43.303Z,12.73
2023-04-18T08:29:11.716Z,12.87
2023-04-18T08:31:40.196Z,12.45
2023-04-18T08:34:08.079Z,12.06
2023-04-18T08:36:36.257Z,12.17
2023-04-18T08:39:06.307Z,12.26
2023-04-18T08:41:38.607Z,12.02
2023-04-18T08:44:07.784Z,12.00
2023-04-18T08:46:37.136Z,11.81
2023-04-18T08:49:05.048Z,11.05
2023-04-18T08:51:34.249Z,11.63
2023-04-18T08:54:04.575Z,11.77
2023-04-18T08:56:33.754Z,12.41
2023-04-18T08:59:01.435Z,12.36
2023-04-18T09:01:52.404Z,12.67
2023-04-18T09:04:35.432Z,12.67
2023-04-18T09:07:04.019Z,12.46
2023-04-18T09:09:48.257Z,12.36
2023-04-18T09:12:19.581Z,12.99
2023-04-18T09:14:48.791Z,13.45
2023-04-18T09:17:21.864Z,13.49
2023-04-18T09:19:50.409Z,13.84
2023-04-18T09:22:18.869Z,13.31
2023-04-18T09:24:54.300Z,13.46
2023-04-18T09:27:23.716Z,12.80
2023-04-18T09:29:52.932Z,13.05
2023-04-18T09:32:25.117Z,12.85
2023-04-18T09:34:58.295Z,13.08
2023-04-18T09:37:27.281Z,13.11
2023-04-18T09:39:55.676Z,13.31
2023-04-18T09:42:27.483Z,13.41
2023-04-18T09:45:01.951Z,13.08
2023-04-18T09:47:29.848Z,13.37
2023-04-18T09:49:57.717Z,13.57
2023-04-18T09:52:26.752Z,13.84
2023-04-18T09:54:59.199Z,13.93
2023-04-18T09:57:31.229Z,13.84
2023-04-18T10:00:10.634Z,13.93
2023-04-18T10:02:49.328Z,13.65
2023-04-18T10:05:20.790Z,13.73
2023-04-18T10:07:50.695Z,14.65
2023-04-18T10:10:19.061Z,15.02
2023-04-18T10:12:50.734Z,16.49
2023-04-18T10:15:21.265Z,18.43
2023-04-18T10:18:04.486Z,19.85
2023-04-18T10:20:35.950Z,19.38
2023-04-18T10:23:35.697Z,17.14
2023-04-18T10:26:04.164Z,16.33
2023-04-18T10:28:56.724Z,16.75
2023-04-18T10:31:26.355Z,16.73
2023-04-18T10:36:28.571Z,16.21
2023-04-18T10:39:00.575Z,18.03
2023-04-18T10:41:29.962Z,20.35
2023-04-18T10:44:19.558Z,17.17
2023-04-18T10:47:23.054Z,17.16
2023-04-18T10:50:01.607Z,16.91
2023-04-18T10:52:30.387Z,17.30
2023-04-18T10:55:27.490Z,17.50
2023-04-18T10:57:58.762Z,16.88
2023-04-18T11:00:29.209Z,15.92
2023-04-18T11:02:57.920Z,17.08
2023-04-18T11:05:27.723Z,17.35
2023-04-18T11:07:56.288Z,17.81
2023-04-18T11:10:25.623Z,18.72
2023-04-18T11:12:54.284Z,16.90
2023-04-18T11:15:23.894Z,17.22
2023-04-18T11:18:00.899Z,17.11
2023-04-18T11:20:29.436Z,15.96
2023-04-18T11:22:59.259Z,15.88
2023-04-18T11:25:30.287Z,15.60
2023-04-18T11:28:00.905Z,15.40
2023-04-18T11:30:31.374Z,15.11
2023-04-18T11:33:00.618Z,14.83
2023-04-18T11:35:28.457Z,15.51
2023-04-18T11:37:56.315Z,16.95
2023-04-18T11:40:24.441Z,16.97
2023-04-18T11:42:55.392Z,17.86
2023-04-18T11:45:23.266Z,16.99
2023-04-18T11:47:58.203Z,16.48
2023-04-18T11:50:28.191Z,15.80
2023-04-18T11:52:56.937Z,16.09
2023-04-18T11:55:27.216Z,16.98
2023-04-18T11:57:56.763Z,17.26
2023-04-18T12:00:33.633Z,17.87
2023-04-18T12:03:02.863Z,16.89
2023-04-18T12:05:33.622Z,17.19
2023-04-18T12:08:09.439Z,17.42
2023-04-18T12:10:38.478Z,17.17
2023-04-18T12:13:09.070Z,16.89
2023-04-18T12:15:40.233Z,17.85
2023-04-18T12:18:09.342Z,18.06
2023-04-18T12:20:46.285Z,18.49
2023-04-18T12:23:30.727Z,19.34
2023-04-18T12:26:03.426Z,21.06
2023-04-18T12:28:31.964Z,20.37
2023-04-18T12:31:00.103Z,21.82
2023-04-18T12:33:27.994Z,20.48
2023-04-18T12:35:57.449Z,18.65
2023-04-18T12:38:25.607Z,18.14
2023-04-18T12:40:54.059Z,17.69
2023-04-18T12:43:21.850Z,17.80
2023-04-18T12:45:50.908Z,19.84
2023-04-18T12:48:19.114Z,19.06
2023-04-18T12:50:46.861Z,19.84
2023-04-18T12:53:16.000Z,18.21
2023-04-18T12:55:44.047Z,20.56
2023-04-18T12:58:11.767Z,20.85
2023-04-18T13:00:39.626Z,21.28
2023-04-18T13:03:08.251Z,20.08
2023-04-18T13:05:37.423Z,21.61
2023-04-18T13:08:16.216Z,21.71
2023-04-18T13:10:47.584Z,21.20
2023-04-18T13:13:15.546Z,19.53
2023-04-18T13:15:43.322Z,18.74
2023-04-18T13:18:11.123Z,21.29
2023-04-18T13:20:38.899Z,21.47
2023-04-18T13:23:06.641Z,21.86
2023-04-18T13:25:34.394Z,21.60
2023-04-18T13:28:03.874Z,21.09
2023-04-18T13:30:32.077Z,22.81
2023-04-18T13:32:59.940Z,23.49
2023-04-18T13:35:27.848Z,23.32
2023-04-18T13:37:56.011Z,22.95
2023-04-18T13:40:24.264Z,23.37
2023-04-18T13:42:52.375Z,22.59
2023-04-18T13:45:21.721Z,24.37
2023-04-18T13:47:49.467Z,21.10
2023-04-18T13:50:17.401Z,22.75
2023-04-18T13:52:46.216Z,20.99
2023-04-18T13:55:13.966Z,21.03
2023-04-18T13:57:41.665Z,18.81
2023-04-18T14:00:13.632Z,20.59
2023-04-18T14:02:42.870Z,21.67
2023-04-18T14:05:11.435Z,22.42
2023-04-18T14:07:39.557Z,21.93
2023-04-18T14:10:08.453Z,20.58
2023-04-18T14:12:36.746Z,21.85
2023-04-18T14:15:05.005Z,20.34
2023-04-18T14:17:32.874Z,21.34
2023-04-18T14:20:02.356Z,20.01
2023-04-18T14:22:30.316Z,19.38
2023-04-18T14:24:58.188Z,20.92
2023-04-18T14:27:26.689Z,22.25
2023-04-18T14:29:54.592Z,22.76
2023-04-18T14:32:22.376Z,23.24
2023-04-18T14:34:50.451Z,20.72
2023-04-18T14:37:19.646Z,19.71
2023-04-18T14:39:48.899Z,20.78
2023-04-18T14:42:17.104Z,20.92
2023-04-18T14:44:44.949Z,19.24
2023-04-18T14:47:12.725Z,18.92
2023-04-18T14:49:40.467Z,19.05
2023-04-18T14:52:08.587Z,18.77
2023-04-18T14:54:37.769Z,18.49
2023-04-18T14:57:08.136Z,18.93
2023-04-18T14:59:35.934Z,19.35
2023-04-18T15:02:03.758Z,18.48
2023-04-18T15:04:31.880Z,18.05
2023-04-18T15:07:00.131Z,17.92
2023-04-18T15:09:28.226Z,17.36
2023-04-18T15:11:58.328Z,17.59
2023-04-18T15:14:26.159Z,18.69
2023-04-18T15:16:53.964Z,18.40
2023-04-18T15:19:21.683Z,18.61
2023-04-18T15:21:49.518Z,18.79
2023-04-18T15:24:17.312Z,18.44
2023-04-18T15:26:45.345Z,17.33
2023-04-18T15:29:14.599Z,17.41
2023-04-18T15:31:42.380Z,17.60
2023-04-18T15:34:10.536Z,17.92
2023-04-18T15:36:38.537Z,18.62
2023-04-18T15:39:06.813Z,18.48
2023-04-18T15:41:36.334Z,18.04
2023-04-18T15:44:06.033Z,16.85
2023-04-18T15:46:37.478Z,17.07
2023-04-18T15:49:05.436Z,17.19
2023-04-18T15:51:33.238Z,17.47
2023-04-18T15:54:01.177Z,17.71
2023-04-18T15:56:30.099Z,17.94
2023-04-18T15:58:59.704Z,17.51
2023-04-18T16:01:27.762Z,17.84
2023-04-18T16:03:57.212Z,17.08
2023-04-18T16:06:25.055Z,16.79
2023-04-18T16:08:52.839Z,16.59
2023-04-18T16:11:21.684Z,16.20
2023-04-18T16:13:51.711Z,16.30
2023-04-18T16:16:22.741Z,15.94
2023-04-18T16:18:50.625Z,16.46
2023-04-18T16:21:19.883Z,16.39
2023-04-18T16:23:47.962Z,16.80
2023-04-18T16:26:15.842Z,16.66
2023-04-18T16:28:43.637Z,16.30
2023-04-18T16:31:11.588Z,16.08
2023-04-18T16:33:39.686Z,15.95
2023-04-18T16:36:07.556Z,16.14
2023-04-18T16:38:36.762Z,15.89
2023-04-18T16:41:04.548Z,15.61
2023-04-18T16:43:36.326Z,15.53
2023-04-18T16:46:04.580Z,15.42
2023-04-18T16:48:32.587Z,15.48
2023-04-18T16:51:00.415Z,15.75
2023-04-18T16:53:28.159Z,15.76
2023-04-18T16:55:57.661Z,15.60
2023-04-18T16:58:25.479Z,15.46
2023-04-18T17:00:53.889Z,15.37
2023-04-18T17:03:21.754Z,15.14
2023-04-18T17:05:49.702Z,15.13
2023-04-18T17:08:17.776Z,14.99
2023-04-18T17:10:45.610Z,14.86
2023-04-18T17:13:14.706Z,14.81
2023-04-18T17:15:42.947Z,14.92
2023-04-18T17:18:10.814Z,14.84
2023-04-18T17:20:38.660Z,14.78
2023-04-18T17:23:06.618Z,14.72
2023-04-18T17:25:34.376Z,14.61
2023-04-18T17:28:02.323Z,14.56
2023-04-18T17:30:31.657Z,14.40
2023-04-18T17:32:59.544Z,14.41
2023-04-18T17:35:27.316Z,14.36
2023-04-18T17:37:55.428Z,14.24
2023-04-18T17:40:23.345Z,14.21
2023-04-18T17:42:51.063Z,14.15
2023-04-18T17:45:20.410Z,14.16
2023-04-18T17:47:50.889Z,14.06
2023-04-18T17:50:19.106Z,13.95
2023-04-18T17:52:46.842Z,13.93
2023-04-18T17:55:14.930Z,13.95
2023-04-18T17:57:42.835Z,13.78
2023-04-18T18:00:13.522Z,13.81
2023-04-18T18:02:42.318Z,13.72
2023-04-18T18:05:14.248Z,13.72
2023-04-18T18:07:43.608Z,13.60
2023-04-18T18:10:12.447Z,13.50
2023-04-18T18:12:40.995Z,13.46
2023-04-18T18:15:09.920Z,13.42
2023-04-18T18:17:37.696Z,13.39
2023-04-18T18:20:09.886Z,13.22
2023-04-18T18:22:39.109Z,13.10
2023-04-18T18:25:07.995Z,13.09
2023-04-18T18:27:36.067Z,13.12
2023-04-18T18:30:04.067Z,12.98
2023-04-18T18:32:31.971Z,12.86
2023-04-18T18:34:59.806Z,12.84
2023-04-18T18:37:27.672Z,12.85
2023-04-18T18:39:57.230Z,12.92
2023-04-18T18:42:25.026Z,12.90
2023-04-18T18:44:52.741Z,12.91
2023-04-18T18:47:20.705Z,12.91
2023-04-18T18:49:48.786Z,12.72
2023-04-18T18:52:16.895Z,12.66
2023-04-18T18:54:44.647Z,12.63
2023-04-18T18:57:13.844Z,12.59
2023-04-18T18:59:42.546Z,12.53
2023-04-18T19:02:10.492Z,12.46
2023-04-18T19:04:38.407Z,12.43
2023-04-18T19:07:07.262Z,12.25
2023-04-18T19:09:36.790Z,12.29
2023-04-18T19:12:04.683Z,12.17
2023-04-18T19:14:33.967Z,12.15
2023-04-18T19:17:01.864Z,12.11
2023-04-18T19:19:29.779Z,12.10
2023-04-18T19:21:57.931Z,12.19
2023-04-18T19:24:26.060Z,12.13
2023-04-18T19:26:53.976Z,12.11
2023-04-18T19:29:23.534Z,12.17
2023-04-18T19:31:52.730Z,12.17
2023-04-18T19:34:21.865Z,12.15
2023-04-18T19:36:49.612Z,12.03
2023-04-18T19:39:18.202Z,12.04
2023-04-18T19:41:46.136Z,12.03
2023-04-18T19:44:13.921Z,12.07
2023-04-18T19:46:41.793Z,12.08
2023-04-18T19:49:11.093Z,12.00
2023-04-18T19:51:40.251Z,12.01
2023-04-18T19:54:08.130Z,11.87
2023-04-18T19:56:35.925Z,11.79
2023-04-18T19:59:06.029Z,11.81
2023-04-18T20:01:34.194Z,11.70
2023-04-18T20:04:02.250Z,11.81
2023-04-18T20:06:32.086Z,11.76
2023-04-18T20:08:59.797Z,11.72
2023-04-18T20:11:27.783Z,11.67
2023-04-18T20:13:56.575Z,11.54
2023-04-18T20:16:24.671Z,11.60
2023-04-18T20:18:54.851Z,11.63
2023-04-18T20:21:22.949Z,11.66
2023-04-18T20:23:52.139Z,11.56
2023-04-18T20:26:19.962Z,11.54
2023-04-18T20:28:48.079Z,11.50
2023-04-18T20:31:15.840Z,11.43
2023-04-18T20:33:43.621Z,11.40
2023-04-18T20:36:11.384Z,11.33
2023-04-18T20:38:40.285Z,11.31
2023-04-18T20:44:43.861Z,10.97
2023-04-18T20:47:14.745Z,11.06
2023-04-18T20:50:22.694Z,10.72
2023-04-18T20:52:50.413Z,10.99
2023-04-18T20:55:18.366Z,10.96
2023-04-18T20:57:47.541Z,10.96
2023-04-18T21:00:16.009Z,11.00
2023-04-18T21:02:45.532Z,10.91
2023-04-18T21:05:13.566Z,10.90
2023-04-18T21:07:42.624Z,10.77
2023-04-18T21:10:12.405Z,10.76
2023-04-18T21:12:40.163Z,10.69
2023-04-18T21:15:10.623Z,10.65
2023-04-18T21:17:38.492Z,10.66
2023-04-18T21:20:08.137Z,10.56
2023-04-18T21:22:38.476Z,10.54
2023-04-18T21:25:07.838Z,10.60
2023-04-18T21:27:38.380Z,10.59
2023-04-18T21:30:07.589Z,10.58
2023-04-18T21:32:36.827Z,10.54
2023-04-18T21:35:04.945Z,10.47
2023-04-18T21:37:32.823Z,10.30
2023-04-18T21:40:01.507Z,10.21
2023-04-18T21:42:29.357Z,10.18
2023-04-18T21:44:57.059Z,10.20
2023-04-18T21:47:25.905Z,10.29
2023-04-18T21:49:55.620Z,10.17
2023-04-18T21:52:23.433Z,10.15
2023-04-18T21:54:51.284Z,10.22
2023-04-18T21:57:19.097Z,10.18
2023-04-18T21:59:46.780Z,10.17
2023-04-18T22:02:15.013Z,10.24
2023-04-18T22:04:44.492Z,10.20
2023-04-18T22:07:15.489Z,10.24
2023-04-18T22:09:44.757Z,10.24
2023-04-18T22:12:14.033Z,10.03
2023-04-18T22:14:42.087Z,10.11
2023-04-18T22:17:09.991Z,10.19
2023-04-18T22:19:37.757Z,10.24
2023-04-18T22:22:05.939Z,10.32
2023-04-18T22:24:35.081Z,10.35
2023-04-18T22:27:02.928Z,10.23
2023-04-18T22:29:30.655Z,10.47
2023-04-18T22:31:58.749Z,10.42
2023-04-18T22:34:26.506Z,10.36
2023-04-18T22:36:54.600Z,10.25
2023-04-18T22:39:22.404Z,10.19
2023-04-18T22:41:51.542Z,10.22
2023-04-18T22:44:19.312Z,10.26
2023-04-18T22:46:48.164Z,10.30
2023-04-18T22:49:17.955Z,10.13
2023-04-18T22:51:46.374Z,10.28
2023-04-18T22:54:14.219Z,10.23
2023-04-18T22:56:42.551Z,10.26
2023-04-18T22:59:11.686Z,10.42
2023-04-18T23:01:39.887Z,10.34
2023-04-18T23:04:08.042Z,10.31
2023-04-18T23:06:37.175Z,10.31
2023-04-18T23:09:05.378Z,10.41
2023-04-18T23:11:33.259Z,10.25
2023-04-18T23:14:01.263Z,10.21
2023-04-18T23:16:30.648Z,10.30
2023-04-18T23:18:58.411Z,10.19
2023-04-18T23:21:26.340Z,10.27
2023-04-18T23:23:54.131Z,10.30
2023-04-18T23:26:22.228Z,10.31
2023-04-18T23:28:50.131Z,10.18
2023-04-18T23:31:18.239Z,10.34
2023-04-18T23:33:47.804Z,10.36
2023-04-18T23:36:15.587Z,10.35
2023-04-18T23:38:43.942Z,10.36
2023-04-18T23:41:12.130Z,10.29
2023-04-18T23:43:40.265Z,10.32
2023-04-18T23:46:08.024Z,10.33
2023-04-18T23:48:35.935Z,10.40
2023-04-18T23:51:05.222Z,10.34
2023-04-18T23:53:32.989Z,10.12
2023-04-18T23:56:00.693Z,10.28
2023-04-18T23:58:28.479Z,10.18
